Time;durP1;ratioP1;P1;durP2;ratioP2;P2;SDS_P1;SDS_P2;PMS_P1;PMS_P2;Temp;Humidity;BMP_temperature;BMP_pressure;BME280_temperature;BME280_humidity;BME280_pressure;Samples;Min_cycle;Max_cycle;Signal;HPM_P1;HPM_P2
2024/04/05 00:00:13;;;;;;;;;;;;;;;9.17;100.00;100573.69;5073523;28;20360;-72
2024/04/05 00:02:39;;;;;;;;;;;;;;;9.19;100.00;100566.25;5057995;28;19920;-73
2024/04/05 00:05:05;;;;;;;;;;;;;;;9.17;100.00;100567.47;5072115;28;20264;-73
2024/04/05 00:07:30;;;;;;;;;;;;;;;9.09;100.00;100571.13;5073512;28;20003;-73
2024/04/05 00:09:55;;;;;;;;;;;;;;;9.11;100.00;100571.75;5074107;28;19980;-72
2024/04/05 00:12:20;;;;;;;;;;;;;;;9.12;100.00;100570.75;5072241;28;19920;-73
2024/04/05 00:14:45;;;;;;;;;;;;;;;9.12;100.00;100562.69;5072825;28;20003;-73
2024/04/05 00:17:14;;;;;;;;;;;;;;;9.12;100.00;100568.06;5055297;28;19923;-73
2024/04/05 00:19:41;;;;;;;;;;;;;;;9.08;100.00;100561.41;5059791;28;19923;-73
2024/04/05 00:22:06;;;;;;;;;;;;;;;9.13;100.00;100563.50;5073633;28;19957;-72
2024/04/05 00:24:31;;;;;;;;;;;;;;;9.16;100.00;100563.97;5073533;28;20016;-73
2024/04/05 00:26:56;;;;;;;;;;;;;;;9.13;100.00;100558.97;5071757;28;19916;-73
2024/04/05 00:29:22;;;;;;;;;;;;;;;9.15;100.00;100554.25;5073135;28;19920;-73
2024/04/05 00:31:47;;;;;;;;;;;;;;;9.16;100.00;100555.06;5073003;28;20279;-73
2024/04/05 00:34:12;;;;;;;;;;;;;;;9.18;100.00;100561.88;5072732;28;19916;-73
2024/04/05 00:36:40;;;;;;;;;;;;;;;9.20;100.00;100559.84;5072120;28;19991;-73
2024/04/05 00:39:05;;;;;;;;;;;;;;;9.22;100.00;100557.78;5073101;28;19920;-73
2024/04/05 00:41:31;;;;;;;;;;;;;;;9.25;100.00;100557.41;5072191;28;19924;-73
2024/04/05 00:43:56;;;;;;;;;;;;;;;9.23;100.00;100551.41;5073044;28;19923;-73
2024/04/05 00:46:21;;;;;;;;;;;;;;;9.20;100.00;100546.41;5072394;28;20269;-73
2024/04/05 00:48:47;;;;;;;;;;;;;;;9.20;100.00;100554.47;5072245;28;19966;-73
2024/04/05 00:51:15;;;;;;;;;;;;;;;9.25;100.00;100559.28;5072533;28;20356;-73
2024/04/05 00:53:40;;;;;;;;;;;;;;;9.32;100.00;100562.81;5054342;28;20359;-72
2024/04/05 00:56:06;;;;;;;;;;;;;;;9.36;100.00;100557.88;5066858;28;19978;-73
2024/04/05 00:58:31;;;;;;;;;;;;;;;9.48;100.00;100568.91;5072230;28;19916;-74
2024/04/05 01:00:56;;;;;;;;;;;;;;;9.45;100.00;100566.63;5072082;28;19923;-72
2024/04/05 01:03:22;;;;;;;;;;;;;;;9.54;100.00;100565.47;5072056;28;19924;-72
2024/04/05 01:05:47;;;;;;;;;;;;;;;9.61;100.00;100560.13;5072622;28;20279;-73
2024/04/05 01:08:13;;;;;;;;;;;;;;;9.66;100.00;100563.88;5072655;28;19924;-73
2024/04/05 01:10:39;;;;;;;;;;;;;;;9.68;100.00;100555.63;5072126;28;19916;-73
2024/04/05 01:13:05;;;;;;;;;;;;;;;9.77;100.00;100548.22;5069767;28;20004;-73
2024/04/05 01:15:32;;;;;;;;;;;;;;;9.80;100.00;100561.25;5072266;28;19999;-73
2024/04/05 01:17:58;;;;;;;;;;;;;;;9.84;100.00;100568.72;5072390;28;19916;-73
2024/04/05 01:20:24;;;;;;;;;;;;;;;9.83;100.00;100550.94;5072477;28;19989;-72
2024/04/05 01:22:53;;;;;;;;;;;;;;;9.89;100.00;100564.59;5071893;28;19916;-73
2024/04/05 01:25:21;;;;;;;;;;;;;;;9.95;100.00;100559.28;5072157;28;19916;-74
2024/04/05 01:27:46;;;;;;;;;;;;;;;9.95;100.00;100571.88;5071237;28;19926;-73
2024/04/05 01:30:11;;;;;;;;;;;;;;;9.98;100.00;100560.72;5071140;28;19916;-73
2024/04/05 01:32:37;;;;;;;;;;;;;;;10.02;100.00;100562.81;5071446;28;19932;-73
2024/04/05 01:35:02;;;;;;;;;;;;;;;10.09;100.00;100568.22;5071295;28;19912;-73
2024/04/05 01:37:27;;;;;;;;;;;;;;;10.04;100.00;100570.69;5071881;28;19923;-74
2024/04/05 01:39:52;;;;;;;;;;;;;;;10.13;100.00;100563.28;5072051;28;20270;-74
2024/04/05 01:42:18;;;;;;;;;;;;;;;10.13;100.00;100557.91;5070669;28;19971;-73
2024/04/05 01:44:43;;;;;;;;;;;;;;;10.14;100.00;100554.19;5071578;28;19955;-73
2024/04/05 01:47:08;;;;;;;;;;;;;;;10.14;100.00;100552.31;5071766;28;19916;-73
2024/04/05 01:49:33;;;;;;;;;;;;;;;10.14;100.00;100541.53;5068781;28;19917;-74
2024/04/05 01:51:58;;;;;;;;;;;;;;;10.14;100.00;100555.00;5071712;28;19917;-74
2024/04/05 01:54:25;;;;;;;;;;;;;;;10.05;100.00;100544.63;5071929;28;19924;-74
2024/04/05 01:56:50;;;;;;;;;;;;;;;10.06;100.00;100546.28;5070378;28;19967;-74
2024/04/05 01:59:15;;;;;;;;;;;;;;;10.04;100.00;100553.72;5071576;28;19955;-74
2024/04/05 02:01:40;;;;;;;;;;;;;;;10.02;100.00;100548.53;5071544;28;19920;-74
2024/04/05 02:04:06;;;;;;;;;;;;;;;10.02;100.00;100553.91;5070299;28;19966;-74
2024/04/05 02:06:31;;;;;;;;;;;;;;;9.95;100.00;100551.22;5071599;28;19958;-74
2024/04/05 02:08:56;;;;;;;;;;;;;;;9.99;100.00;100555.13;5071693;28;20380;-74
2024/04/05 02:11:21;;;;;;;;;;;;;;;10.01;100.00;100549.56;5068769;28;19916;-74
2024/04/05 02:13:49;;;;;;;;;;;;;;;9.98;100.00;100548.09;5071251;28;19916;-74
2024/04/05 02:16:14;;;;;;;;;;;;;;;9.94;100.00;100551.38;5070966;28;19923;-74
2024/04/05 02:18:40;;;;;;;;;;;;;;;9.94;100.00;100546.00;5070804;28;19920;-74
2024/04/05 02:21:05;;;;;;;;;;;;;;;10.01;100.00;100544.19;5070994;28;19923;-72
2024/04/05 02:23:30;;;;;;;;;;;;;;;9.98;100.00;100542.72;5071628;28;19917;-73
2024/04/05 02:25:55;;;;;;;;;;;;;;;10.00;100.00;100542.53;5070435;28;19916;-73
2024/04/05 02:28:20;;;;;;;;;;;;;;;10.01;100.00;100541.50;5071223;28;19916;-73
2024/04/05 02:30:46;;;;;;;;;;;;;;;10.00;100.00;100546.03;5072027;28;20306;-73
2024/04/05 02:33:14;;;;;;;;;;;;;;;10.04;100.00;100535.72;5069411;28;20714;-72
2024/04/05 02:35:39;;;;;;;;;;;;;;;10.04;100.00;100537.56;5071392;28;19973;-73
2024/04/05 02:38:05;;;;;;;;;;;;;;;10.05;100.00;100523.94;5071913;28;20002;-73
2024/04/05 02:40:30;;;;;;;;;;;;;;;10.04;100.00;100527.66;5070160;28;19975;-73
2024/04/05 02:42:55;;;;;;;;;;;;;;;10.05;100.00;100523.09;5071016;28;19929;-73
2024/04/05 02:45:23;;;;;;;;;;;;;;;10.00;100.00;100515.63;5072279;28;19916;-73
2024/04/05 02:47:49;;;;;;;;;;;;;;;9.95;100.00;100518.94;5071055;28;19913;-73
2024/04/05 02:50:14;;;;;;;;;;;;;;;9.97;100.00;100522.22;5070771;28;20284;-73
2024/04/05 02:52:39;;;;;;;;;;;;;;;9.98;100.00;100528.44;5073428;28;19977;-73
2024/04/05 02:55:08;;;;;;;;;;;;;;;9.96;100.00;100531.34;5089170;28;20123;-73
2024/04/05 02:57:33;;;;;;;;;;;;;;;9.95;100.00;100544.97;5091561;28;19924;-73
2024/04/05 02:59:58;;;;;;;;;;;;;;;9.92;100.00;100550.75;5093792;28;19938;-73
2024/04/05 03:02:26;;;;;;;;;;;;;;;9.92;100.00;100545.38;5096285;28;19920;-73
2024/04/05 03:04:51;;;;;;;;;;;;;;;9.90;100.00;100558.19;5085611;28;19920;-73
2024/04/05 03:07:17;;;;;;;;;;;;;;;9.86;100.00;100561.31;5077662;28;20046;-72
2024/04/05 03:09:42;;;;;;;;;;;;;;;9.77;100.00;100562.47;5076622;28;20253;-73
2024/04/05 03:12:07;;;;;;;;;;;;;;;9.70;100.00;100562.44;5076743;28;20273;-73
2024/04/05 03:14:32;;;;;;;;;;;;;;;9.67;100.00;100559.34;5076017;28;19909;-72
2024/04/05 03:16:58;;;;;;;;;;;;;;;9.61;100.00;100560.97;5075470;28;19916;-72
2024/04/05 03:19:23;;;;;;;;;;;;;;;9.55;100.00;100559.88;5075308;28;20003;-73
2024/04/05 03:21:48;;;;;;;;;;;;;;;9.48;100.00;100563.53;5075244;28;20367;-73
2024/04/05 03:24:13;;;;;;;;;;;;;;;9.45;100.00;100554.03;5075125;28;20233;-73
2024/04/05 03:26:39;;;;;;;;;;;;;;;9.46;100.00;100544.94;5073708;28;19969;-72
2024/04/05 03:29:04;;;;;;;;;;;;;;;9.43;100.00;100542.66;5074554;28;19912;-73
2024/04/05 03:31:29;;;;;;;;;;;;;;;9.37;100.00;100552.34;5074390;28;19916;-72
2024/04/05 03:33:55;;;;;;;;;;;;;;;9.48;100.00;100556.34;5074222;28;19920;-73
2024/04/05 03:36:20;;;;;;;;;;;;;;;9.51;100.00;100550.56;5073722;28;19922;-72
2024/04/05 03:38:49;;;;;;;;;;;;;;;9.53;100.00;100551.16;5073935;28;20024;-72
2024/04/05 03:41:15;;;;;;;;;;;;;;;9.53;100.00;100548.50;5073998;28;19916;-72
2024/04/05 03:43:40;;;;;;;;;;;;;;;9.51;100.00;100547.03;5073027;28;20272;-72
2024/04/05 03:46:05;;;;;;;;;;;;;;;9.44;100.00;100549.69;5074366;28;20327;-72
2024/04/05 03:48:31;;;;;;;;;;;;;;;9.39;100.00;100544.91;5074124;28;19912;-72
2024/04/05 03:50:56;;;;;;;;;;;;;;;9.45;100.00;100540.59;5073653;28;20302;-72
2024/04/05 03:53:21;;;;;;;;;;;;;;;9.47;100.00;100543.91;5074213;28;20351;-72
2024/04/05 03:56:06;;;;;;;;;;;;;;;9.44;100.00;100532.75;5073572;28;20325;-73
2024/04/05 03:58:32;;;;;;;;;;;;;;;9.42;100.00;100535.63;5073622;28;19939;-73
2024/04/05 04:00:57;;;;;;;;;;;;;;;9.46;100.00;100542.25;5073840;28;20371;-72
2024/04/05 04:03:22;;;;;;;;;;;;;;;9.46;100.00;100542.25;5073230;28;20416;-72
2024/04/05 04:05:47;;;;;;;;;;;;;;;9.49;100.00;100539.19;5073797;28;19974;-72
2024/04/05 04:08:13;;;;;;;;;;;;;;;9.55;100.00;100545.63;5073934;28;20007;-72
2024/04/05 04:10:51;;;;;;;;;;;;;;;9.53;100.00;100548.50;5072745;28;19951;-73
2024/04/05 04:13:16;;;;;;;;;;;;;;;9.48;100.00;100545.59;5056772;28;19927;-73
2024/04/05 04:15:41;;;;;;;;;;;;;;;9.55;100.00;100538.38;5073950;28;19916;-73
2024/04/05 04:18:06;;;;;;;;;;;;;;;9.51;100.00;100534.44;5071669;28;19922;-73
2024/04/05 04:20:32;;;;;;;;;;;;;;;9.58;100.00;100534.47;5073855;28;19920;-73
2024/04/05 04:22:57;;;;;;;;;;;;;;;9.61;100.00;100541.31;5073830;28;19977;-74
2024/04/05 04:25:22;;;;;;;;;;;;;;;9.64;100.00;100543.59;5072781;28;20351;-73
2024/04/05 04:27:52;;;;;;;;;;;;;;;9.69;100.00;100538.47;5073378;28;20385;-73
2024/04/05 04:30:17;;;;;;;;;;;;;;;9.69;100.00;100541.97;5073648;28;19912;-73
2024/04/05 04:32:44;;;;;;;;;;;;;;;9.69;100.00;100547.34;5071585;28;20364;-72
2024/04/05 04:35:10;;;;;;;;;;;;;;;9.73;100.00;100555.03;5073149;28;19923;-72
2024/04/05 04:37:35;;;;;;;;;;;;;;;9.77;100.00;100548.22;5073131;28;20003;-72
2024/04/05 04:40:00;;;;;;;;;;;;;;;9.76;100.00;100555.44;5072122;28;19991;-73
2024/04/05 04:42:25;;;;;;;;;;;;;;;9.78;100.00;100550.69;5072704;28;20025;-73
2024/04/05 04:44:54;;;;;;;;;;;;;;;9.82;100.00;100554.66;5073672;28;19970;-72
2024/04/05 04:47:19;;;;;;;;;;;;;;;9.86;100.00;100553.22;5070989;28;19912;-73
2024/04/05 04:49:44;;;;;;;;;;;;;;;9.87;100.00;100546.00;5072453;28;20003;-73
2024/04/05 04:52:09;;;;;;;;;;;;;;;9.85;100.00;100540.81;5070795;28;19960;-73
2024/04/05 04:54:35;;;;;;;;;;;;;;;9.85;100.00;100539.97;5069868;28;20370;-73
2024/04/05 04:57:02;;;;;;;;;;;;;;;9.79;100.00;100524.66;5072618;28;20355;-74
2024/04/05 04:59:28;;;;;;;;;;;;;;;9.70;100.00;100521.31;5073086;28;19999;-73
2024/04/05 05:01:56;;;;;;;;;;;;;;;9.69;100.00;100498.16;5071777;28;20020;-73
2024/04/05 05:04:22;;;;;;;;;;;;;;;9.65;100.00;100496.88;5071754;28;19924;-73
2024/04/05 05:06:47;;;;;;;;;;;;;;;9.64;100.00;100495.22;5072432;28;19912;-73
2024/04/05 05:09:15;;;;;;;;;;;;;;;9.56;100.00;100494.34;5072158;28;19920;-73
2024/04/05 05:11:40;;;;;;;;;;;;;;;9.56;100.00;100498.91;5072172;28;19917;-73
2024/04/05 05:14:06;;;;;;;;;;;;;;;9.67;100.00;100500.22;5071839;28;19969;-73
2024/04/05 05:16:31;;;;;;;;;;;;;;;9.62;100.00;100491.91;5073939;28;19979;-73
2024/04/05 05:18:59;;;;;;;;;;;;;;;9.68;100.00;100496.50;5073682;28;19916;-72
2024/04/05 05:21:24;;;;;;;;;;;;;;;9.75;100.00;100497.34;5071487;28;20065;-72
2024/04/05 05:23:59;;;;;;;;;;;;;;;9.74;100.00;100494.84;5071960;28;19974;-73
2024/04/05 05:26:24;;;;;;;;;;;;;;;9.72;100.00;100497.72;5071752;28;20000;-72
2024/04/05 05:28:49;;;;;;;;;;;;;;;9.77;100.00;100505.22;5071977;28;20006;-72
2024/04/05 05:31:14;;;;;;;;;;;;;;;9.77;100.00;100511.41;5071114;28;19971;-72
2024/04/05 05:33:39;;;;;;;;;;;;;;;9.77;100.00;100506.03;5071325;28;19924;-72
2024/04/05 05:36:05;;;;;;;;;;;;;;;9.78;100.00;100491.56;5072150;28;20279;-72
2024/04/05 05:38:30;;;;;;;;;;;;;;;9.82;100.00;100508.94;5072071;28;19991;-72
2024/04/05 05:41:02;;;;;;;;;;;;;;;9.83;100.00;100507.94;5071562;28;19920;-72
2024/04/05 05:43:27;;;;;;;;;;;;;;;9.94;100.00;100503.00;5071648;28;19919;-72
2024/04/05 05:45:55;;;;;;;;;;;;;;;10.00;100.00;100507.56;5071986;28;19920;-72
2024/04/05 05:48:21;;;;;;;;;;;;;;;10.12;100.00;100514.00;5071403;28;19960;-73
2024/04/05 05:50:49;;;;;;;;;;;;;;;10.23;100.00;100506.41;5071587;28;19920;-72
2024/04/05 05:53:14;;;;;;;;;;;;;;;10.24;100.00;100497.28;5071732;28;20036;-73
2024/04/05 05:55:40;;;;;;;;;;;;;;;10.28;100.00;100493.16;5069829;28;19996;-73
2024/04/05 05:58:05;;;;;;;;;;;;;;;10.33;100.00;100498.75;5072095;28;19999;-73
2024/04/05 06:00:33;;;;;;;;;;;;;;;10.35;100.00;100501.22;5071699;28;19962;-73
2024/04/05 06:02:58;;;;;;;;;;;;;;;10.32;100.00;100489.84;5070723;28;19958;-72
2024/04/05 06:05:23;;;;;;;;;;;;;;;10.31;100.00;100484.69;5071284;28;20487;-72
2024/04/05 06:07:49;;;;;;;;;;;;;;;10.31;100.00;100460.47;5067636;28;20025;-72
2024/04/05 06:10:15;;;;;;;;;;;;;;;10.28;100.00;100471.63;5067717;28;19916;-72
2024/04/05 06:12:41;;;;;;;;;;;;;;;10.25;100.00;100450.50;5069441;28;19927;-72
2024/04/05 06:15:07;;;;;;;;;;;;;;;10.16;100.00;100442.66;5069818;28;19916;-75
2024/04/05 06:17:35;;;;;;;;;;;;;;;10.18;100.00;100430.84;5068051;28;20371;-73
2024/04/05 06:20:01;;;;;;;;;;;;;;;10.27;100.00;100443.91;5069731;28;19997;-73
2024/04/05 06:22:27;;;;;;;;;;;;;;;10.33;100.00;100434.19;5069354;28;20011;-72
2024/04/05 06:24:52;;;;;;;;;;;;;;;10.39;100.00;100433.41;5068868;28;19916;-76
2024/04/05 06:27:17;;;;;;;;;;;;;;;10.46;100.00;100436.09;5068755;28;19916;-73
2024/04/05 06:29:47;;;;;;;;;;;;;;;10.62;100.00;100429.44;5069953;28;20012;-73
2024/04/05 06:32:12;;;;;;;;;;;;;;;10.79;100.00;100432.56;5068567;28;20099;-72
2024/04/05 06:34:40;;;;;;;;;;;;;;;10.87;100.00;100436.91;5070065;28;20143;-72
2024/04/05 06:37:06;;;;;;;;;;;;;;;10.98;100.00;100446.22;5073350;28;19920;-72
2024/04/05 06:39:31;;;;;;;;;;;;;;;11.08;100.00;100435.81;5072613;28;19939;-72
2024/04/05 06:41:57;;;;;;;;;;;;;;;11.10;100.00;100425.66;5074033;28;19973;-73
2024/04/05 06:44:22;;;;;;;;;;;;;;;11.23;100.00;100416.72;5074430;28;19912;-73
2024/04/05 06:46:47;;;;;;;;;;;;;;;11.43;100.00;100408.56;5072848;28;19999;-73
2024/04/05 06:49:14;;;;;;;;;;;;;;;11.43;100.00;100410.44;5073186;28;20363;-73
2024/04/05 06:51:39;;;;;;;;;;;;;;;11.52;100.00;100411.84;5072746;28;19927;-73
2024/04/05 06:54:05;;;;;;;;;;;;;;;11.52;100.00;100409.13;5073246;28;19912;-72
2024/04/05 06:56:30;;;;;;;;;;;;;;;11.48;100.00;100391.72;5073265;28;20019;-73
2024/04/05 06:58:55;;;;;;;;;;;;;;;11.47;100.00;100390.09;5072302;28;19986;-73
2024/04/05 07:01:24;;;;;;;;;;;;;;;11.50;100.00;100395.03;5072402;28;19919;-73
2024/04/05 07:03:49;;;;;;;;;;;;;;;11.60;100.00;100378.41;5073512;28;20396;-73
2024/04/05 07:06:15;;;;;;;;;;;;;;;11.65;100.00;100376.72;5072813;28;19956;-73
2024/04/05 07:08:40;;;;;;;;;;;;;;;11.74;100.00;100369.19;5072843;28;20014;-73
2024/04/05 07:11:06;;;;;;;;;;;;;;;11.77;100.00;100367.97;5072991;28;20099;-73
2024/04/05 07:13:32;;;;;;;;;;;;;;;11.90;100.00;100361.66;5073692;28;19912;-73
2024/04/05 07:15:57;;;;;;;;;;;;;;;11.90;100.00;100361.66;5054633;28;20454;-73
2024/04/05 07:18:24;;;;;;;;;;;;;;;11.92;100.00;100362.25;5073464;28;19977;-73
2024/04/05 07:20:49;;;;;;;;;;;;;;;11.95;100.00;100357.25;5072448;28;19948;-72
2024/04/05 07:23:15;;;;;;;;;;;;;;;12.04;100.00;100355.16;5071837;28;19959;-72
2024/04/05 07:25:40;;;;;;;;;;;;;;;12.03;100.00;100358.06;5072805;28;20258;-71
2024/04/05 07:28:05;;;;;;;;;;;;;;;11.98;100.00;100350.59;5073308;28;19956;-71
2024/04/05 07:30:33;;;;;;;;;;;;;;;11.96;100.00;100350.81;5071809;28;19917;-72
2024/04/05 07:32:58;;;;;;;;;;;;;;;11.97;100.00;100339.00;5072362;28;19927;-72
2024/04/05 07:35:24;;;;;;;;;;;;;;;12.17;100.00;100342.59;5072605;28;19916;-73
2024/04/05 07:37:49;;;;;;;;;;;;;;;12.23;100.00;100347.94;5072278;28;20339;-73
2024/04/05 07:40:36;;;;;;;;;;;;;;;12.26;100.00;100357.47;5071977;28;20268;-72
2024/04/05 07:43:01;;;;;;;;;;;;;;;12.38;100.00;100358.41;5072295;28;19976;-73
2024/04/05 07:45:27;;;;;;;;;;;;;;;12.68;100.00;100356.88;5072003;28;20363;-71
2024/04/05 07:47:52;;;;;;;;;;;;;;;13.02;100.00;100347.34;5069723;28;19924;-70
2024/04/05 07:50:18;;;;;;;;;;;;;;;13.13;100.00;100353.88;5073280;28;20054;-71
2024/04/05 07:52:43;;;;;;;;;;;;;;;13.03;100.00;100348.19;5071706;28;19925;-71
2024/04/05 07:55:09;;;;;;;;;;;;;;;12.99;100.00;100344.28;5071277;28;19927;-71
2024/04/05 07:57:38;;;;;;;;;;;;;;;13.01;100.00;100334.91;5072426;28;19939;-71
2024/04/05 08:00:20;;;;;;;;;;;;;;;12.98;100.00;100334.53;5053315;28;19916;-71
2024/04/05 08:02:52;;;;;;;;;;;;;;;12.95;100.00;100351.19;5070552;28;19917;-71
2024/04/05 08:05:18;;;;;;;;;;;;;;;12.89;100.00;100342.94;5073245;28;19912;-71
2024/04/05 08:07:43;;;;;;;;;;;;;;;12.94;100.00;100349.53;5071644;28;19912;-71
2024/04/05 08:10:11;;;;;;;;;;;;;;;12.95;100.00;100351.19;5070664;28;19978;-71
2024/04/05 08:12:37;;;;;;;;;;;;;;;12.92;100.00;100347.06;5072955;28;19916;-70
2024/04/05 08:15:03;;;;;;;;;;;;;;;12.99;100.00;100341.59;5071895;28;19916;-70
2024/04/05 08:17:28;;;;;;;;;;;;;;;13.10;100.00;100338.13;5052682;28;19924;-70
2024/04/05 08:19:54;;;;;;;;;;;;;;;13.19;100.00;100341.34;5072216;28;19916;-70
2024/04/05 08:22:19;;;;;;;;;;;;;;;13.20;100.00;100337.59;5071649;28;19908;-70
2024/04/05 08:24:44;;;;;;;;;;;;;;;13.22;100.00;100334.69;5071001;28;19921;-71
2024/04/05 08:27:09;;;;;;;;;;;;;;;13.22;100.00;100340.09;5072689;28;19916;-71
2024/04/05 08:29:35;;;;;;;;;;;;;;;13.21;100.00;100322.22;5072551;28;19919;-72
2024/04/05 08:32:00;;;;;;;;;;;;;;;13.20;100.00;100321.38;5063500;28;20031;-71
2024/04/05 08:34:25;;;;;;;;;;;;;;;13.18;100.00;100316.22;5072492;28;19920;-72
2024/04/05 08:36:51;;;;;;;;;;;;;;;13.21;100.00;100314.09;5070620;28;19981;-72
2024/04/05 08:39:20;;;;;;;;;;;;;;;13.26;100.00;100309.66;5070733;28;19923;-73
2024/04/05 08:41:47;;;;;;;;;;;;;;;13.28;100.00;100299.44;5066802;28;19928;-72
2024/04/05 08:44:12;;;;;;;;;;;;;;;13.33;100.00;100301.44;5067933;28;19917;-69
2024/04/05 08:46:43;;;;;;;;;;;;;;;13.38;100.00;100293.50;5069727;28;19916;-71
2024/04/05 08:49:12;;;;;;;;;;;;;;;13.44;100.00;100297.19;5070728;28;19916;-72
2024/04/05 08:51:37;;;;;;;;;;;;;;;13.44;100.00;100297.19;5051514;28;19916;-71
2024/04/05 08:54:03;;;;;;;;;;;;;;;13.47;100.00;100299.44;5070270;28;19912;-71
2024/04/05 08:56:28;;;;;;;;;;;;;;;13.42;100.00;100297.41;5069821;28;19974;-70
2024/04/05 08:58:54;;;;;;;;;;;;;;;13.38;100.00;100296.19;5068487;28;19981;-71
2024/04/05 09:01:20;;;;;;;;;;;;;;;13.36;100.00;100290.19;5069165;28;19927;-72
2024/04/05 09:03:46;;;;;;;;;;;;;;;13.42;100.00;100294.69;5052892;28;19920;-72
2024/04/05 09:06:12;;;;;;;;;;;;;;;13.45;100.00;100293.44;5070456;28;19912;-71
2024/04/05 09:08:48;;;;;;;;;;;;;;;13.45;100.00;100279.91;5069766;28;19912;-72
2024/04/05 09:11:19;;;;;;;;;;;;;;;13.46;100.00;100268.84;5053310;28;20384;-72
2024/04/05 09:13:53;;;;;;;;;;;;;;;13.48;100.00;100253.22;5069819;28;19931;-71
2024/04/05 09:16:22;;;;;;;;;;;;;;;13.47;100.00;100248.06;5069744;28;19920;-71
2024/04/05 09:18:47;;;;;;;;;;;;;;;13.53;100.00;100243.59;5071308;28;19921;-71
2024/04/05 09:21:12;;;;;;;;;;;;;;;13.64;100.00;100235.50;5069093;28;19919;-70
2024/04/05 09:23:44;;;;;;;;;;;;;;;13.76;100.00;100227.41;5069583;28;19921;-71
2024/04/05 09:26:09;;;;;;;;;;;;;;;13.83;100.00;100221.06;5069385;28;19917;-71
2024/04/05 09:28:35;;;;;;;;;;;;;;;13.86;100.00;100217.88;5067799;28;19927;-71
2024/04/05 09:31:00;;;;;;;;;;;;;;;13.88;100.00;100221.19;5068249;28;20011;-71
2024/04/05 09:33:25;;;;;;;;;;;;;;;13.89;100.00;100212.00;5068956;28;19954;-71
2024/04/05 09:35:52;;;;;;;;;;;;;;;14.02;100.00;100225.31;5067996;28;19920;-71
2024/04/05 09:38:21;;;;;;;;;;;;;;;14.05;100.00;100254.59;5050104;28;19928;-72
2024/04/05 09:40:47;;;;;;;;;;;;;;;13.92;100.00;100244.81;5051266;28;19928;-72
2024/04/05 09:43:12;;;;;;;;;;;;;;;13.76;100.00;100268.00;5070160;28;19917;-72
2024/04/05 09:45:37;;;;;;;;;;;;;;;13.61;100.00;100275.69;5052616;28;20310;-71
2024/04/05 09:48:03;;;;;;;;;;;;;;;13.44;100.00;100268.25;5051787;28;20105;-71
2024/04/05 09:50:28;;;;;;;;;;;;;;;13.33;100.00;100298.75;5069974;28;19920;-71
2024/04/05 09:52:54;;;;;;;;;;;;;;;13.24;100.00;100305.53;5051708;28;20011;-71
2024/04/05 09:55:23;;;;;;;;;;;;;;;13.15;100.00;100307.72;5069352;28;20015;-71
2024/04/05 09:57:48;;;;;;;;;;;;;;;13.02;100.00;100309.53;5070571;28;19912;-71
2024/04/05 10:00:15;;;;;;;;;;;;;;;12.95;100.00;100305.25;5068739;28;19927;-71
2024/04/05 10:02:42;;;;;;;;;;;;;;;12.93;100.00;100304.66;5051648;28;20019;-71
2024/04/05 10:05:07;;;;;;;;;;;;;;;12.95;100.00;100305.25;5071055;28;19921;-71
2024/04/05 10:07:35;;;;;;;;;;;;;;;12.98;100.00;100312.91;5069562;28;20348;-71
2024/04/05 10:10:10;;;;;;;;;;;;;;;12.98;100.00;100323.72;5066139;28;20034;-71
2024/04/05 10:12:35;;;;;;;;;;;;;;;12.96;100.00;100323.13;5069590;28;20284;-71
2024/04/05 10:15:01;;;;;;;;;;;;;;;12.92;100.00;100313.81;5070249;28;20003;-71
2024/04/05 10:17:32;;;;;;;;;;;;;;;12.93;100.00;100326.28;5068928;28;19921;-72
2024/04/05 10:20:01;;;;;;;;;;;;;;;12.94;100.00;100323.38;5070772;28;19920;-71
2024/04/05 10:22:26;;;;;;;;;;;;;;;12.88;100.00;100316.16;5069184;28;20158;-71
2024/04/05 10:24:51;;;;;;;;;;;;;;;12.80;100.00;100301.06;5069335;28;20007;-71
2024/04/05 10:27:23;;;;;;;;;;;;;;;12.84;100.00;100285.22;5071022;28;19951;-71
2024/04/05 10:29:58;;;;;;;;;;;;;;;12.90;100.00;100284.34;5069139;28;19919;-73
2024/04/05 10:32:23;;;;;;;;;;;;;;;12.98;100.00;100269.69;5068969;28;19935;-70
2024/04/05 10:34:49;;;;;;;;;;;;;;;13.01;100.00;100261.13;5070551;28;19999;-70
2024/04/05 10:37:16;;;;;;;;;;;;;;;13.14;100.00;100236.63;5071501;28;19923;-72
2024/04/05 10:39:41;;;;;;;;;;;;;;;13.31;100.00;100247.63;5081364;28;19938;-70
2024/04/05 10:42:07;;;;;;;;;;;;;;;13.51;100.00;100262.75;5083739;28;19920;-71
2024/04/05 10:44:33;;;;;;;;;;;;;;;13.64;100.00;100262.56;5081891;28;19979;-71
2024/04/05 10:46:59;;;;;;;;;;;;;;;13.87;100.00;100250.09;5082113;28;19967;-71
2024/04/05 10:49:24;;;;;;;;;;;;;;;14.18;100.00;100236.47;5073309;28;19917;-70
2024/04/05 10:51:56;;;;;;;;;;;;;;;14.44;100.00;100231.63;5070643;28;19913;-71
2024/04/05 10:54:22;;;;;;;;;;;;;;;14.58;100.00;100216.75;5070460;28;20014;-69
2024/04/05 10:56:47;;;;;;;;;;;;;;;14.67;100.00;100233.47;5070298;28;20286;-70
2024/04/05 10:59:12;;;;;;;;;;;;;;;14.69;100.00;100223.25;5069099;28;19916;-70
2024/04/05 11:01:38;;;;;;;;;;;;;;;14.79;100.00;100219.91;5069269;28;20363;-70
2024/04/05 11:04:12;;;;;;;;;;;;;;;14.93;100.00;100229.41;5070881;28;19912;-70
2024/04/05 11:06:38;;;;;;;;;;;;;;;15.00;100.00;100223.84;5068877;28;19912;-70
2024/04/05 11:09:03;;;;;;;;;;;;;;;15.14;99.77;100214.34;5068730;28;19908;-70
2024/04/05 11:11:28;;;;;;;;;;;;;;;15.25;100.00;100192.84;5069267;28;19924;-69
2024/04/05 11:14:03;;;;;;;;;;;;;;;15.33;99.41;100195.16;5068150;28;20280;-71
2024/04/05 11:16:31;;;;;;;;;;;;;;;15.39;98.66;100204.19;5069073;28;20371;-71
2024/04/05 11:18:57;;;;;;;;;;;;;;;15.49;98.72;100228.78;5069679;28;20398;-72
2024/04/05 11:21:22;;;;;;;;;;;;;;;15.63;97.96;100221.13;5070546;28;19916;-71
2024/04/05 11:23:51;;;;;;;;;;;;;;;15.68;97.31;100236.69;5071710;28;19917;-70
2024/04/05 11:26:31;;;;;;;;;;;;;;;15.69;97.83;100219.34;5072724;28;19920;-71
2024/04/05 11:29:02;;;;;;;;;;;;;;;15.57;97.05;100212.09;5072512;28;20383;-72
2024/04/05 11:31:28;;;;;;;;;;;;;;;15.45;96.48;100216.78;5072834;28;19962;-71
2024/04/05 11:33:56;;;;;;;;;;;;;;;15.27;97.67;100226.78;5072544;28;19916;-71
2024/04/05 11:36:21;;;;;;;;;;;;;;;15.19;97.39;100216.31;5072942;28;20311;-71
2024/04/05 11:38:47;;;;;;;;;;;;;;;15.20;98.50;100230.72;5072245;28;20360;-71
2024/04/05 11:41:12;;;;;;;;;;;;;;;15.20;99.62;100233.41;5073115;28;19961;-72
2024/04/05 11:43:37;;;;;;;;;;;;;;;15.17;99.57;100245.59;5071649;28;19920;-70
2024/04/05 11:46:04;;;;;;;;;;;;;;;15.16;98.79;100233.09;5072681;28;19966;-71
2024/04/05 11:48:29;;;;;;;;;;;;;;;15.12;100.00;100243.59;5073392;28;20034;-70
2024/04/05 11:50:55;;;;;;;;;;;;;;;15.16;99.74;100239.31;5072207;28;19995;-71
2024/04/05 11:53:20;;;;;;;;;;;;;;;15.16;99.87;100233.09;5071865;28;19975;-70
2024/04/05 11:55:45;;;;;;;;;;;;;;;15.20;99.93;100228.00;5072626;28;20328;-71
2024/04/05 11:58:11;;;;;;;;;;;;;;;15.41;99.90;100229.19;5071825;28;19920;-71
2024/04/05 12:00:36;;;;;;;;;;;;;;;15.54;97.80;100228.84;5071608;28;19942;-70
2024/04/05 12:03:01;;;;;;;;;;;;;;;15.63;98.04;100215.72;5072112;28;19916;-71
2024/04/05 12:05:26;;;;;;;;;;;;;;;15.61;97.01;100207.03;5071242;28;19926;-70
2024/04/05 12:07:52;;;;;;;;;;;;;;;15.55;99.10;100222.38;5071230;28;20384;-71
2024/04/05 12:10:17;;;;;;;;;;;;;;;15.60;98.20;100221.66;5071428;28;20405;-71
2024/04/05 12:12:42;;;;;;;;;;;;;;;15.46;95.88;100218.44;5071481;28;20392;-70
2024/04/05 12:15:07;;;;;;;;;;;;;;;15.36;97.51;100227.22;5066120;28;20368;-69
2024/04/05 12:17:34;;;;;;;;;;;;;;;15.28;97.74;100225.72;5071964;28;19916;-71
2024/04/05 12:20:00;;;;;;;;;;;;;;;15.19;97.71;100219.03;5070587;28;20311;-69
2024/04/05 12:22:25;;;;;;;;;;;;;;;14.94;99.63;100219.38;5070124;28;19912;-71
2024/04/05 12:24:53;;;;;;;;;;;;;;;14.81;100.00;100221.31;5072075;28;19939;-72